Time;durP1;ratioP1;P1;durP2;ratioP2;P2;SDS_P1;SDS_P2;PMS_P1;PMS_P2;Temp;Humidity;BMP_temperature;BMP_pressure;BME280_temperature;BME280_humidity;BME280_pressure;Samples;Min_cycle;Max_cycle;Signal;HPM_P1;HPM_P2
2021/06/15 00:01:58;;;;;;;6.95;2.63;;;20.30;99.90;;;;;;5031929;28;20040;-64
2021/06/15 00:04:24;;;;;;;5.47;2.47;;;20.20;99.90;;;;;;5033392;28;20033;-64
2021/06/15 00:06:49;;;;;;;5.40;2.55;;;20.00;99.90;;;;;;5033347;28;20034;-64
2021/06/15 00:09:15;;;;;;;5.32;2.53;;;19.90;99.90;;;;;;5031737;28;20109;-64
2021/06/15 00:11:41;;;;;;;6.20;2.60;;;19.80;99.90;;;;;;5032953;28;20033;-64
2021/06/15 00:14:07;;;;;;;5.43;2.33;;;19.70;99.90;;;;;;5032819;28;20029;-64
2021/06/15 00:16:33;;;;;;;6.00;2.40;;;19.60;99.90;;;;;;5032679;28;20040;-64
2021/06/15 00:18:58;;;;;;;5.45;2.50;;;19.60;99.90;;;;;;5032940;28;20032;-64
2021/06/15 00:21:24;;;;;;;6.47;2.70;;;19.50;99.90;;;;;;5032770;28;20022;-64
2021/06/15 00:23:50;;;;;;;5.53;3.00;;;19.40;99.90;;;;;;5032764;28;20037;-63
2021/06/15 00:26:16;;;;;;;8.75;3.33;;;19.50;99.90;;;;;;5032724;28;20033;-65
2021/06/15 00:28:42;;;;;;;5.35;2.75;;;19.50;99.90;;;;;;5032650;28;20033;-64
2021/06/15 00:31:07;;;;;;;4.18;2.53;;;19.40;99.90;;;;;;5031477;28;20048;-64
2021/06/15 00:33:33;;;;;;;4.85;2.65;;;19.20;99.90;;;;;;5031393;28;20492;-64
2021/06/15 00:35:59;;;;;;;9.63;3.15;;;19.10;99.90;;;;;;5032619;28;20029;-63
2021/06/15 00:38:25;;;;;;;9.38;3.08;;;19.10;99.90;;;;;;5032810;28;20398;-63
2021/06/15 00:40:51;;;;;;;5.40;2.80;;;19.20;99.90;;;;;;5032655;28;20466;-64
2021/06/15 00:43:17;;;;;;;8.55;3.17;;;19.20;99.90;;;;;;5032792;28;20033;-64
2021/06/15 00:45:43;;;;;;;6.18;2.90;;;19.20;99.90;;;;;;5032667;28;20033;-64
2021/06/15 00:48:28;;;;;;;5.68;3.65;;;19.20;99.90;;;;;;5032389;28;20033;-63
2021/06/15 00:50:54;;;;;;;4.97;3.08;;;19.30;99.90;;;;;;5015899;28;20041;-64
2021/06/15 00:53:20;;;;;;;6.53;2.92;;;19.50;99.90;;;;;;5032210;28;20033;-62
2021/06/15 00:55:47;;;;;;;8.73;3.40;;;19.50;99.90;;;;;;5031375;28;20056;-64
2021/06/15 00:58:12;;;;;;;7.15;3.30;;;19.50;99.90;;;;;;5031065;28;20087;-64
2021/06/15 01:00:38;;;;;;;10.85;3.40;;;19.50;99.90;;;;;;5032462;28;20030;-64
2021/06/15 01:03:05;;;;;;;9.98;4.35;;;19.50;99.90;;;;;;5032231;28;20065;-64
2021/06/15 01:05:31;;;;;;;8.52;3.40;;;19.50;99.90;;;;;;5030993;28;20080;-64
2021/06/15 01:08:16;;;;;;;13.25;4.22;;;19.60;99.90;;;;;;5030943;28;20033;-64
2021/06/15 01:11:08;;;;;;;9.85;3.75;;;19.60;99.90;;;;;;5032339;28;20038;-64
2021/06/15 01:13:46;;;;;;;7.68;3.70;;;19.50;99.90;;;;;;5031891;28;20037;-64
2021/06/15 01:16:20;;;;;;;10.95;2.97;;;19.40;99.90;;;;;;5032356;28;20040;-64
2021/06/15 01:18:51;;;;;;;6.07;3.15;;;19.30;99.90;;;;;;5032235;28;20038;-64
2021/06/15 01:21:21;;;;;;;11.20;4.18;;;19.30;99.90;;;;;;5032666;28;20044;-63
2021/06/15 01:24:03;;;;;;;7.75;3.70;;;19.40;99.90;;;;;;5034950;28;20029;-63
2021/06/15 01:27:09;;;;;;;5.63;3.20;;;19.40;99.90;;;;;;5035363;28;20049;-64
2021/06/15 01:29:38;;;;;;;7.05;3.42;;;19.20;99.90;;;;;;5034763;28;20033;-64
2021/06/15 01:32:15;;;;;;;8.55;3.70;;;18.90;99.90;;;;;;5036399;28;20037;-63
2021/06/15 01:34:43;;;;;;;7.30;3.30;;;18.70;99.90;;;;;;5034810;28;20029;-64
2021/06/15 01:37:27;;;;;;;8.70;3.70;;;18.50;99.90;;;;;;5035049;28;20087;-64
2021/06/15 01:40:14;;;;;;;5.93;3.47;;;18.50;99.90;;;;;;5034624;28;20443;-64
2021/06/15 01:42:45;;;;;;;10.85;3.75;;;18.60;99.90;;;;;;5019168;28;20520;-65
2021/06/15 01:45:29;;;;;;;10.43;3.25;;;18.70;99.90;;;;;;5034702;28;20092;-64
2021/06/15 01:48:05;;;;;;;7.90;3.40;;;18.70;99.90;;;;;;5034566;28;20030;-63
2021/06/15 01:50:36;;;;;;;7.25;3.22;;;18.80;99.90;;;;;;5034652;28;20029;-63
2021/06/15 01:53:05;;;;;;;7.65;3.70;;;18.90;99.90;;;;;;5034512;28;20087;-64
2021/06/15 01:55:34;;;;;;;8.75;3.38;;;18.90;99.90;;;;;;5034434;28;20029;-63
2021/06/15 01:58:03;;;;;;;7.70;3.45;;;18.90;99.90;;;;;;5034613;28;20072;-63
2021/06/15 02:00:32;;;;;;;9.38;3.42;;;18.80;99.90;;;;;;5035439;28;20037;-64
2021/06/15 02:03:02;;;;;;;8.43;3.40;;;18.90;99.90;;;;;;5034559;28;20377;-63
2021/06/15 02:05:52;;;;;;;8.03;3.60;;;18.80;99.90;;;;;;5034593;28;20026;-63
2021/06/15 02:08:43;;;;;;;9.37;4.00;;;18.90;99.90;;;;;;5034095;28;20043;-64
2021/06/15 02:11:10;;;;;;;8.48;3.72;;;18.80;99.90;;;;;;5034355;28;20060;-63
2021/06/15 02:13:42;;;;;;;9.07;3.60;;;18.80;99.90;;;;;;5034206;28;20037;-65
2021/06/15 02:16:09;;;;;;;11.48;3.90;;;18.80;99.90;;;;;;5035560;28;20112;-64
2021/06/15 02:18:36;;;;;;;8.27;3.90;;;18.80;99.90;;;;;;5033838;28;20529;-63
2021/06/15 02:21:07;;;;;;;8.57;3.60;;;18.80;99.90;;;;;;5034077;28;20064;-64
2021/06/15 02:23:35;;;;;;;7.13;3.72;;;18.80;99.90;;;;;;5034190;28;20422;-63
2021/06/15 02:26:07;;;;;;;10.38;3.70;;;18.70;99.90;;;;;;5035444;28;20026;-63
2021/06/15 02:28:35;;;;;;;6.88;4.15;;;18.50;99.90;;;;;;5033948;28;20083;-63
2021/06/15 02:31:03;;;;;;;7.65;4.00;;;18.60;99.90;;;;;;5034825;28;20410;-63
2021/06/15 02:33:36;;;;;;;10.82;4.60;;;18.60;99.90;;;;;;5017048;28;20428;-63
2021/06/15 02:36:19;;;;;;;10.05;3.60;;;18.50;99.90;;;;;;5034027;28;20034;-63
2021/06/15 02:38:55;;;;;;;9.10;3.40;;;18.50;99.90;;;;;;5033731;28;20048;-64
2021/06/15 02:41:22;;;;;;;6.93;3.42;;;18.40;99.90;;;;;;5033945;28;20036;-64
2021/06/15 02:43:50;;;;;;;7.25;3.70;;;18.30;99.90;;;;;;5016910;28;20061;-64
2021/06/15 02:46:19;;;;;;;7.22;3.45;;;18.40;99.90;;;;;;5033592;28;20501;-64
2021/06/15 02:48:57;;;;;;;9.75;3.83;;;18.30;99.90;;;;;;5017051;28;20033;-64
2021/06/15 02:51:30;;;;;;;10.93;4.20;;;18.20;99.90;;;;;;5017603;28;20037;-64
2021/06/15 02:54:20;;;;;;;10.65;3.67;;;18.20;99.90;;;;;;5033524;28;20041;-64
2021/06/15 02:56:51;;;;;;;9.15;3.95;;;17.90;99.90;;;;;;5034224;28;20038;-64
2021/06/15 02:59:18;;;;;;;6.70;3.65;;;18.10;99.90;;;;;;5033330;28;20371;-64
2021/06/15 03:01:52;;;;;;;5.82;3.40;;;18.10;99.90;;;;;;5034195;28;20034;-64
2021/06/15 03:04:18;;;;;;;7.32;3.38;;;18.10;99.90;;;;;;5034676;28;20038;-64
2021/06/15 03:06:45;;;;;;;7.68;3.50;;;18.20;99.90;;;;;;5034149;28;20026;-64
2021/06/15 03:09:13;;;;;;;9.55;3.63;;;18.30;99.90;;;;;;5033093;28;20037;-64
2021/06/15 03:12:11;;;;;;;6.28;3.10;;;18.30;99.90;;;;;;5033942;28;20060;-64
2021/06/15 03:14:41;;;;;;;7.82;4.15;;;18.10;99.90;;;;;;5029751;28;20124;-64
2021/06/15 03:17:09;;;;;;;7.07;3.60;;;18.00;99.90;;;;;;5033237;28;20091;-64
2021/06/15 03:19:59;;;;;;;8.70;3.90;;;17.70;99.90;;;;;;5032953;28;20083;-64
2021/06/15 03:23:13;;;;;;;7.33;3.50;;;17.70;99.90;;;;;;5034418;28;20059;-64
2021/06/15 03:25:41;;;;;;;9.02;3.50;;;17.90;99.90;;;;;;5024939;28;20037;-64
2021/06/15 03:28:15;;;;;;;8.25;3.28;;;18.00;99.90;;;;;;5032735;28;20060;-64
2021/06/15 03:30:45;;;;;;;7.13;3.53;;;18.00;99.90;;;;;;5032468;28;20107;-64
2021/06/15 03:33:16;;;;;;;8.93;3.80;;;18.00;99.90;;;;;;5032873;28;20030;-64
2021/06/15 03:35:48;;;;;;;5.97;3.50;;;18.00;99.90;;;;;;5033955;28;20115;-64
2021/06/15 03:38:15;;;;;;;6.40;3.60;;;18.00;99.90;;;;;;5032600;28;20037;-64
2021/06/15 03:40:51;;;;;;;7.88;4.05;;;18.00;99.90;;;;;;5032301;28;20025;-64
2021/06/15 03:43:20;;;;;;;7.72;3.55;;;18.00;99.90;;;;;;5032919;28;20099;-64
2021/06/15 03:46:09;;;;;;;9.75;3.78;;;17.90;99.90;;;;;;5032296;28;20034;-55
2021/06/15 03:48:46;;;;;;;9.95;3.75;;;18.00;99.90;;;;;;5031438;28;20033;-54
2021/06/15 03:51:42;;;;;;;9.00;4.07;;;18.00;99.90;;;;;;5032378;28;20033;-56
2021/06/15 03:54:09;;;;;;;8.80;3.40;;;18.00;99.90;;;;;;5032713;28;20051;-53
2021/06/15 03:56:59;;;;;;;7.43;3.60;;;18.00;99.90;;;;;;5033272;28;20029;-57
2021/06/15 03:59:28;;;;;;;7.35;4.20;;;18.10;99.90;;;;;;5032243;28;20064;-55
2021/06/15 04:01:59;;;;;;;8.15;3.70;;;18.10;99.90;;;;;;5033359;28;20095;-55
2021/06/15 04:04:27;;;;;;;6.47;3.72;;;18.10;99.90;;;;;;5033095;28;20389;-56
2021/06/15 04:06:55;;;;;;;9.65;4.45;;;18.20;99.90;;;;;;5032068;28;20041;-53
2021/06/15 04:09:31;;;;;;;7.13;3.80;;;18.20;99.90;;;;;;5032076;28;20021;-50
2021/06/15 04:11:59;;;;;;;7.15;3.60;;;18.10;99.90;;;;;;5032010;28;20025;-55
2021/06/15 04:14:27;;;;;;;8.23;3.70;;;18.10;99.90;;;;;;5032080;28;20021;-55
2021/06/15 04:16:55;;;;;;;8.45;3.40;;;18.10;99.90;;;;;;5033066;28;20029;-55
2021/06/15 04:19:36;;;;;;;7.30;3.63;;;18.20;99.90;;;;;;5031967;28;20029;-58
2021/06/15 04:22:06;;;;;;;8.15;3.42;;;18.30;99.90;;;;;;5017026;28;20117;-53
2021/06/15 04:24:34;;;;;;;7.30;3.22;;;18.30;99.90;;;;;;5031877;28;20037;-51
2021/06/15 04:27:00;;;;;;;7.95;3.90;;;18.30;99.90;;;;;;5031687;28;20612;-58
2021/06/15 04:29:27;;;;;;;7.13;3.60;;;18.10;99.90;;;;;;5032505;28;20417;-56
2021/06/15 04:31:59;;;;;;;7.03;3.47;;;17.80;99.90;;;;;;5031614;28;20041;-57
2021/06/15 04:34:27;;;;;;;6.63;3.30;;;17.90;99.90;;;;;;5031386;28;20037;-53
2021/06/15 04:37:01;;;;;;;10.88;4.50;;;17.90;99.90;;;;;;5032635;28;20088;-56
2021/06/15 04:39:36;;;;;;;8.63;3.30;;;17.90;99.90;;;;;;5032896;28;20029;-57
2021/06/15 04:42:06;;;;;;;5.85;3.30;;;17.90;99.90;;;;;;5031266;28;20394;-52
2021/06/15 04:44:38;;;;;;;8.40;3.97;;;17.80;99.90;;;;;;5032548;28;20036;-54
2021/06/15 04:47:28;;;;;;;9.38;3.42;;;18.00;99.90;;;;;;5031025;28;20037;-56
2021/06/15 04:50:04;;;;;;;10.63;3.22;;;17.90;99.90;;;;;;5012790;28;20124;-56
2021/06/15 04:52:31;;;;;;;11.23;3.95;;;18.10;99.90;;;;;;5012301;28;20110;-57
2021/06/15 04:55:00;;;;;;;12.85;5.95;;;18.00;99.90;;;;;;5011292;28;20474;-57
2021/06/15 04:57:32;;;;;;;7.05;3.40;;;18.00;99.90;;;;;;5011707;28;20417;-58
2021/06/15 05:00:01;;;;;;;10.88;4.60;;;18.10;99.90;;;;;;5012538;28;20050;-58
2021/06/15 05:02:28;;;;;;;7.45;3.60;;;18.10;99.90;;;;;;5012578;28;20477;-58
2021/06/15 05:04:55;;;;;;;10.68;3.53;;;18.20;99.90;;;;;;5011240;28;20065;-56
2021/06/15 05:07:23;;;;;;;4.90;3.30;;;18.50;99.90;;;;;;5012357;28;20041;-59
2021/06/15 05:10:00;;;;;;;8.30;2.97;;;18.60;99.90;;;;;;5012448;28;20034;-59
2021/06/15 05:12:36;;;;;;;6.38;3.03;;;18.50;99.90;;;;;;5010982;28;20040;-57
2021/06/15 05:15:11;;;;;;;6.45;3.00;;;18.60;99.90;;;;;;5011146;28;20493;-58
2021/06/15 05:17:40;;;;;;;5.82;3.08;;;18.60;99.90;;;;;;5015785;28;20045;-55
2021/06/15 05:20:08;;;;;;;14.13;8.25;;;18.80;99.90;;;;;;5032115;28;20033;-58
2021/06/15 05:22:56;;;;;;;5.63;3.55;;;18.80;99.90;;;;;;5032177;28;20155;-57
2021/06/15 05:25:22;;;;;;;5.88;3.33;;;18.90;99.90;;;;;;5032138;28;20485;-56
2021/06/15 05:27:50;;;;;;;5.85;3.13;;;19.00;99.90;;;;;;5032189;28;20042;-58
2021/06/15 05:30:17;;;;;;;9.13;3.50;;;19.20;99.90;;;;;;5030599;28;20050;-55
2021/06/15 05:32:43;;;;;;;6.32;3.30;;;19.10;99.90;;;;;;5031993;28;20034;-56
2021/06/15 05:35:10;;;;;;;8.00;3.13;;;19.10;99.90;;;;;;5029694;28;20501;-56
2021/06/15 05:37:35;;;;;;;5.88;2.72;;;19.10;99.90;;;;;;5031774;28;20546;-56
2021/06/15 05:40:03;;;;;;;9.10;2.90;;;19.20;99.90;;;;;;5030675;28;20635;-56
2021/06/15 05:42:29;;;;;;;5.18;3.08;;;19.30;99.90;;;;;;5030578;28;20029;-56
2021/06/15 05:44:55;;;;;;;11.80;3.08;;;19.40;99.90;;;;;;5031614;28;20032;-57
2021/06/15 05:47:21;;;;;;;7.78;2.63;;;19.60;99.90;;;;;;5032815;28;20511;-54
2021/06/15 05:49:48;;;;;;;6.38;3.30;;;19.70;99.90;;;;;;5050268;28;20060;-56
2021/06/15 05:52:14;;;;;;;10.38;2.88;;;19.80;99.90;;;;;;5049399;28;20029;-57
2021/06/15 05:54:40;;;;;;;12.07;4.10;;;19.90;99.90;;;;;;5050624;28;20029;-56
2021/06/15 05:57:07;;;;;;;7.10;2.83;;;20.00;99.90;;;;;;5066574;28;20037;-55
2021/06/15 05:59:33;;;;;;;9.00;3.50;;;20.30;99.90;;;;;;5048447;28;20033;-55
2021/06/15 06:01:59;;;;;;;6.60;2.78;;;20.40;99.90;;;;;;5051388;28;20025;-55
2021/06/15 06:04:32;;;;;;;11.05;3.72;;;20.50;99.90;;;;;;5051545;28;20453;-56
2021/06/15 06:09:42;;;;;;;8.77;4.05;;;20.90;99.90;;;;;;5053620;28;20403;-56
2021/06/15 06:12:10;;;;;;;11.48;3.90;;;21.00;99.90;;;;;;5035231;28;20030;-55
2021/06/15 06:14:36;;;;;;;5.45;3.05;;;21.20;99.90;;;;;;5034070;28;20048;-57
2021/06/15 06:17:04;;;;;;;7.43;3.95;;;21.20;99.90;;;;;;5035097;28;20513;-52
2021/06/15 06:19:30;;;;;;;6.32;3.50;;;21.40;99.90;;;;;;5054119;28;20032;-56
2021/06/15 06:21:56;;;;;;;8.57;3.70;;;21.50;99.90;;;;;;5055142;28;20081;-56
2021/06/15 06:24:23;;;;;;;7.85;3.83;;;21.30;99.90;;;;;;5053736;28;20029;-55
2021/06/15 06:26:50;;;;;;;9.73;3.97;;;21.30;99.90;;;;;;5055201;28;20035;-56
2021/06/15 06:29:21;;;;;;;9.27;3.65;;;21.30;99.90;;;;;;5053833;28;20036;-57
2021/06/15 06:31:47;;;;;;;5.80;3.80;;;21.50;99.90;;;;;;5055047;28;20098;-55
2021/06/15 06:34:14;;;;;;;5.90;3.33;;;21.50;99.90;;;;;;5070299;28;20029;-54
2021/06/15 06:36:39;;;;;;;6.82;3.33;;;21.50;99.90;;;;;;5054934;28;20033;-54
2021/06/15 06:39:07;;;;;;;6.38;3.90;;;21.60;99.90;;;;;;5054584;28;20121;-55
2021/06/15 06:41:34;;;;;;;5.90;3.28;;;21.40;99.90;;;;;;5053722;28;20440;-54
2021/06/15 06:44:01;;;;;;;7.30;3.38;;;21.50;99.90;;;;;;5054709;28;20496;-56
2021/06/15 06:46:27;;;;;;;7.15;3.55;;;21.60;99.90;;;;;;5054822;28;20422;-51
2021/06/15 06:48:53;;;;;;;7.13;3.17;;;21.60;99.90;;;;;;5040372;28;20056;-56
2021/06/15 06:51:19;;;;;;;5.80;3.50;;;21.60;99.90;;;;;;5034524;28;20091;-54
2021/06/15 06:53:46;;;;;;;8.13;3.22;;;21.70;99.90;;;;;;5034476;28;20021;-54
2021/06/15 06:56:12;;;;;;;11.25;3.28;;;21.90;99.90;;;;;;5034593;28;20449;-55
2021/06/15 06:58:37;;;;;;;8.27;3.15;;;21.80;99.90;;;;;;5034384;28;20393;-56
2021/06/15 07:01:04;;;;;;;7.40;3.30;;;22.00;99.90;;;;;;5034409;28;20026;-57
2021/06/15 07:03:30;;;;;;;7.32;2.92;;;22.10;99.90;;;;;;5034227;28;20088;-56
2021/06/15 07:05:57;;;;;;;5.88;3.17;;;22.10;99.90;;;;;;5034269;28;20030;-54
2021/06/15 07:08:25;;;;;;;6.95;3.40;;;22.10;99.90;;;;;;5034106;28;20393;-51
2021/06/15 07:10:50;;;;;;;5.85;2.88;;;22.20;99.90;;;;;;5050170;28;20473;-54
2021/06/15 07:13:16;;;;;;;8.88;3.33;;;22.40;99.90;;;;;;5047896;28;20167;-57
2021/06/15 07:15:42;;;;;;;5.38;3.00;;;22.40;99.90;;;;;;5037082;28;20381;-57
2021/06/15 07:18:08;;;;;;;9.95;2.85;;;22.60;99.90;;;;;;5038065;28;20040;-53
2021/06/15 07:20:34;;;;;;;7.65;3.50;;;22.40;99.90;;;;;;5052697;28;20033;-57
2021/06/15 07:23:00;;;;;;;8.70;3.63;;;22.60;99.90;;;;;;5037647;28;20052;-55
2021/06/15 07:25:26;;;;;;;9.32;3.53;;;22.60;99.90;;;;;;5046471;28;20127;-56
2021/06/15 07:27:52;;;;;;;5.03;3.03;;;22.70;99.90;;;;;;5051596;28;20040;-57
2021/06/15 07:30:19;;;;;;;10.13;3.03;;;22.90;99.90;;;;;;5047613;28;20068;-56
2021/06/15 07:32:46;;;;;;;7.07;2.97;;;23.10;99.90;;;;;;5043298;28;20044;-56
2021/06/15 07:35:12;;;;;;;6.75;2.97;;;23.10;99.90;;;;;;5045014;28;20638;-54
2021/06/15 07:37:39;;;;;;;7.07;2.70;;;22.70;99.90;;;;;;5040579;28;20095;-56
2021/06/15 07:40:08;;;;;;;6.50;3.30;;;22.70;99.90;;;;;;5047050;28;20069;-58
2021/06/15 07:42:34;;;;;;;6.57;3.15;;;23.00;99.90;;;;;;5038735;28;20033;-55
2021/06/15 07:45:00;;;;;;;5.68;2.60;;;23.20;99.50;;;;;;5039009;28;20402;-53
2021/06/15 07:47:26;;;;;;;5.05;3.30;;;23.30;99.50;;;;;;5061846;28;20049;-56
2021/06/15 07:49:52;;;;;;;8.10;2.55;;;23.50;99.40;;;;;;5013950;28;20040;-55
2021/06/15 07:52:18;;;;;;;8.55;2.80;;;23.50;99.30;;;;;;5013558;28;20133;-53
2021/06/15 07:54:45;;;;;;;7.72;2.97;;;23.70;98.90;;;;;;5013620;28;20022;-56
2021/06/15 07:57:11;;;;;;;5.72;2.45;;;23.70;98.60;;;;;;5019105;28;20097;-52
2021/06/15 07:59:37;;;;;;;6.32;2.78;;;23.80;97.80;;;;;;5053170;28;20116;-54
2021/06/15 08:02:03;;;;;;;7.85;2.40;;;23.90;98.00;;;;;;5053064;28;20136;-56
2021/06/15 08:04:29;;;;;;;6.10;2.45;;;24.10;97.40;;;;;;5053245;28;20025;-56
2021/06/15 08:06:55;;;;;;;5.53;3.00;;;24.20;97.00;;;;;;5036709;28;20389;-51
2021/06/15 08:09:21;;;;;;;6.15;2.65;;;24.50;96.80;;;;;;5033025;28;20037;-55
2021/06/15 08:11:47;;;;;;;6.95;2.90;;;24.60;96.20;;;;;;5033272;28;20124;-56
2021/06/15 08:14:13;;;;;;;8.50;2.75;;;24.80;95.60;;;;;;5032903;28;20120;-55
2021/06/15 08:16:38;;;;;;;5.30;2.10;;;25.00;95.40;;;;;;5033043;28;20026;-55
2021/06/15 08:19:04;;;;;;;5.68;3.75;;;25.10;94.90;;;;;;5048375;28;20041;-58
2021/06/15 08:21:31;;;;;;;5.57;2.20;;;25.10;94.90;;;;;;5052623;28;20079;-55
2021/06/15 08:23:57;;;;;;;5.57;2.58;;;25.30;94.40;;;;;;5052918;28;20052;-53
2021/06/15 08:26:23;;;;;;;4.60;2.47;;;25.30;94.00;;;;;;5052983;28;20108;-52
2021/06/15 08:28:49;;;;;;;6.90;2.58;;;25.20;93.30;;;;;;5052839;28;20079;-56
2021/06/15 08:31:14;;;;;;;4.55;2.17;;;25.40;93.30;;;;;;5052096;28;20041;-57
2021/06/15 08:33:40;;;;;;;7.32;2.58;;;25.60;93.20;;;;;;5052506;28;20037;-55
2021/06/15 08:36:06;;;;;;;4.03;2.50;;;25.70;92.80;;;;;;5052632;28;20032;-56
2021/06/15 08:38:32;;;;;;;8.10;2.35;;;25.80;92.40;;;;;;5052420;28;20033;-55
2021/06/15 08:40:58;;;;;;;4.47;2.35;;;25.90;92.10;;;;;;5051089;28;20595;-56
2021/06/15 08:43:25;;;;;;;6.20;2.50;;;26.00;92.40;;;;;;5068180;28;20044;-56
2021/06/15 08:45:51;;;;;;;4.43;2.40;;;26.10;92.20;;;;;;5052187;28;20040;-57
2021/06/15 08:48:17;;;;;;;6.55;2.70;;;26.10;91.90;;;;;;5042887;28;20041;-56
2021/06/15 08:50:44;;;;;;;4.43;2.40;;;26.20;91.60;;;;;;5032699;28;20033;-56
2021/06/15 08:53:11;;;;;;;6.30;2.45;;;26.20;91.50;;;;;;5032424;28;20113;-56
2021/06/15 08:55:39;;;;;;;7.43;2.35;;;26.20;91.40;;;;;;5032572;28;20045;-57
2021/06/15 08:58:34;;;;;;;5.75;1.98;;;26.10;91.20;;;;;;5032304;28;20156;-57
2021/06/15 09:00:59;;;;;;;4.85;2.45;;;26.50;90.90;;;;;;5032333;28;20030;-54
2021/06/15 09:03:25;;;;;;;3.80;1.90;;;26.70;90.70;;;;;;5032104;28;20029;-54
2021/06/15 09:05:51;;;;;;;5.95;2.35;;;26.80;91.00;;;;;;5031215;28;20410;-57
2021/06/15 09:08:17;;;;;;;6.50;2.58;;;26.90;90.40;;;;;;5032219;28;20033;-55
2021/06/15 09:10:48;;;;;;;4.63;2.03;;;26.80;90.60;;;;;;5032239;28;20378;-53
2021/06/15 09:13:34;;;;;;;7.88;2.40;;;27.00;90.20;;;;;;5031940;28;20030;-55
2021/06/15 09:16:16;;;;;;;5.43;2.50;;;27.00;89.20;;;;;;5032018;28;20529;-56
2021/06/15 09:18:42;;;;;;;5.80;2.10;;;27.20;88.60;;;;;;5032226;28;20042;-55
2021/06/15 09:21:08;;;;;;;4.50;2.30;;;27.30;87.50;;;;;;5030871;28;20030;-57
2021/06/15 09:23:37;;;;;;;3.72;2.13;;;27.30;87.50;;;;;;5032344;28;20440;-57
2021/06/15 09:26:05;;;;;;;3.53;2.10;;;27.40;87.00;;;;;;5032093;28;20029;-58
2021/06/15 09:28:31;;;;;;;7.13;2.67;;;27.30;87.80;;;;;;5032186;28;20034;-55
2021/06/15 09:31:09;;;;;;;4.47;2.05;;;27.40;87.10;;;;;;5031748;28;20048;-56
2021/06/15 09:33:44;;;;;;;3.47;2.38;;;27.40;87.00;;;;;;5030454;28;20037;-57
2021/06/15 09:36:13;;;;;;;7.90;2.45;;;27.50;86.80;;;;;;5031756;28;20389;-57
2021/06/15 09:38:56;;;;;;;6.20;2.50;;;27.50;87.00;;;;;;5032044;28;20033;-57
2021/06/15 09:41:46;;;;;;;7.72;2.33;;;27.70;84.50;;;;;;5047364;28;20052;-57
2021/06/15 09:44:22;;;;;;;5.57;2.13;;;27.90;84.70;;;;;;5051317;28;20117;-57
2021/06/15 09:46:53;;;;;;;7.03;2.50;;;27.90;85.20;;;;;;5036062;28;20083;-57
2021/06/15 09:49:39;;;;;;;19.63;10.70;;;27.90;84.60;;;;;;5051610;28;20029;-57
2021/06/15 09:52:19;;;;;;;7.32;3.05;;;27.50;84.90;;;;;;5055526;28;20032;-56
2021/06/15 09:55:00;;;;;;;;;;;27.60;84.60;;;;;;5056306;28;20465;-54
2021/06/15 09:57:33;;;;;;;5.65;2.03;;;27.70;84.00;;;;;;5070148;28;19917;-56
2021/06/15 10:00:12;;;;;;;7.25;2.10;;;27.80;83.20;;;;;;5054562;28;20033;-57
2021/06/15 10:02:57;;;;;;;4.70;1.98;;;27.90;83.00;;;;;;5055735;28;20036;-56
2021/06/15 10:05:33;;;;;;;11.57;2.60;;;27.90;83.10;;;;;;5047506;28;20030;-57
2021/06/15 10:08:06;;;;;;;6.25;1.90;;;28.10;81.40;;;;;;5035545;28;20072;-56
2021/06/15 10:10:37;;;;;;;16.48;7.97;;;28.40;79.80;;;;;;5035627;28;20079;-56
2021/06/15 10:13:05;;;;;;;6.32;2.83;;;28.60;78.50;;;;;;5033917;28;20485;-57
2021/06/15 10:15:31;;;;;;;66.97;30.45;;;28.80;78.00;;;;;;5035174;28;20056;-57
2021/06/15 10:17:58;;;;;;;5.85;2.65;;;28.50;78.00;;;;;;5041095;28;20044;-59
2021/06/15 10:20:30;;;;;;;8.90;4.65;;;28.70;76.70;;;;;;5055159;28;20076;-54
2021/06/15 10:22:58;;;;;;;7.28;3.78;;;28.40;76.40;;;;;;5054868;28;20093;-54
2021/06/15 10:25:27;;;;;;;4.80;2.72;;;28.60;77.50;;;;;;5055046;28;20029;-56
2021/06/15 10:27:56;;;;;;;3.78;1.70;;;28.80;76.60;;;;;;5054056;28;20029;-55
2021/06/15 10:30:35;;;;;;;3.58;2.13;;;29.00;75.30;;;;;;5054628;28;20159;-56
2021/06/15 10:33:21;;;;;;;3.10;1.80;;;28.70;75.50;;;;;;5053893;28;20040;-55
2021/06/15 10:35:52;;;;;;;4.78;2.25;;;28.80;76.30;;;;;;5054719;28;20032;-57
2021/06/15 10:38:29;;;;;;;4.32;1.63;;;29.10;75.90;;;;;;5054676;28;20029;-56
2021/06/15 10:41:00;;;;;;;4.75;1.83;;;29.30;72.80;;;;;;5053409;28;20071;-57
2021/06/15 10:43:35;;;;;;;;;;;29.40;72.10;;;;;;5053805;28;20033;-57
2021/06/15 10:46:13;;;;;;;4.30;1.88;;;29.50;74.00;;;;;;5054848;28;19919;-55
2021/06/15 10:48:44;;;;;;;5.50;2.53;;;29.60;70.80;;;;;;5042488;28;20025;-57
2021/06/15 10:51:35;;;;;;;4.05;2.47;;;29.50;70.40;;;;;;5034743;28;20037;-57
2021/06/15 10:54:22;;;;;;;5.05;1.80;;;29.60;70.00;;;;;;5033416;28;20037;-58
2021/06/15 10:57:22;;;;;;;5.07;2.03;;;29.70;71.40;;;;;;5034365;28;20030;-57
2021/06/15 11:00:14;;;;;;;3.80;1.80;;;29.80;71.10;;;;;;5034089;28;20069;-58
2021/06/15 11:03:01;;;;;;;5.10;2.20;;;30.10;70.50;;;;;;5034234;28;20036;-57
2021/06/15 11:06:04;;;;;;;3.08;1.63;;;30.20;68.60;;;;;;5032902;28;20029;-63
2021/06/15 11:08:32;;;;;;;2.78;1.50;;;30.20;68.80;;;;;;5032381;28;20045;-64
2021/06/15 11:11:04;;;;;;;4.28;1.90;;;30.20;66.70;;;;;;5034260;28;20034;-64
2021/06/15 11:13:48;;;;;;;2.72;1.65;;;30.00;68.10;;;;;;5033871;28;20037;-64
2021/06/15 11:16:33;;;;;;;3.95;1.88;;;30.30;68.50;;;;;;5033982;28;20038;-64
2021/06/15 11:19:11;;;;;;;19.67;4.75;;;30.60;69.40;;;;;;5048774;28;20062;-64
2021/06/15 11:21:54;;;;;;;29.63;5.35;;;30.70;68.50;;;;;;5053876;28;20127;-63
2021/06/15 11:24:34;;;;;;;4.80;2.03;;;30.60;68.90;;;;;;5053583;28;20025;-64
2021/06/15 11:27:23;;;;;;;5.47;1.92;;;30.50;69.00;;;;;;5054212;28;20037;-64
2021/06/15 11:29:51;;;;;;;3.70;1.92;;;30.40;68.50;;;;;;5053531;28;20040;-63
2021/06/15 11:32:17;;;;;;;4.55;2.10;;;30.40;67.50;;;;;;5052341;28;20409;-62
2021/06/15 11:35:03;;;;;;;3.53;1.70;;;30.40;66.20;;;;;;5053335;28;20028;-64
2021/06/15 11:37:38;;;;;;;4.38;1.95;;;30.70;66.90;;;;;;5058636;28;20385;-63
2021/06/15 11:40:25;;;;;;;4.25;2.00;;;31.00;67.40;;;;;;5033928;28;20033;-64
2021/06/15 11:43:07;;;;;;;4.35;1.70;;;30.90;65.30;;;;;;5033515;28;20029;-63
2021/06/15 11:45:42;;;;;;;2.65;1.40;;;31.00;66.50;;;;;;5033269;28;20393;-63
2021/06/15 11:48:36;;;;;;;5.47;1.70;;;31.00;66.40;;;;;;5041233;28;20032;-63
2021/06/15 11:51:08;;;;;;;5.88;2.00;;;31.30;64.30;;;;;;5053510;28;20076;-63
2021/06/15 11:53:40;;;;;;;3.40;1.65;;;31.00;63.80;;;;;;5051952;28;20033;-63
2021/06/15 11:56:09;;;;;;;6.28;1.98;;;30.90;63.10;;;;;;5052332;28;20026;-63
2021/06/15 11:58:44;;;;;;;4.47;1.60;;;31.40;63.00;;;;;;5053175;28;20138;-63
2021/06/15 12:01:13;;;;;;;4.22;2.20;;;31.50;63.50;;;;;;5035840;28;20415;-63
2021/06/15 12:03:42;;;;;;;5.30;1.98;;;31.80;62.60;;;;;;5053337;28;20033;-64
2021/06/15 12:06:10;;;;;;;3.60;1.95;;;31.90;61.60;;;;;;5051107;28;20120;-64
2021/06/15 12:08:43;;;;;;;4.90;1.98;;;32.00;62.40;;;;;;5052096;28;20104;-63
2021/06/15 12:11:14;;;;;;;6.63;1.88;;;32.10;61.50;;;;;;5049181;28;20056;-62
2021/06/15 12:13:41;;;;;;;4.30;2.38;;;32.10;61.50;;;;;;5051334;28;20610;-63
2021/06/15 12:16:25;;;;;;;4.13;1.92;;;32.50;60.50;;;;;;5052669;28;20036;-63
2021/06/15 12:18:56;;;;;;;2.85;1.67;;;32.70;61.50;;;;;;5038103;28;20482;-63
2021/06/15 12:21:25;;;;;;;4.30;1.70;;;32.70;60.50;;;;;;5032680;28;20040;-64
2021/06/15 12:23:59;;;;;;;7.00;1.80;;;32.50;61.00;;;;;;5015440;28;20164;-64
2021/06/15 12:26:39;;;;;;;8.00;5.20;;;32.30;60.70;;;;;;5033021;28;20108;-64
2021/06/15 12:29:12;;;;;;;3.20;1.90;;;31.90;60.20;;;;;;5016005;28;20036;-64
2021/06/15 12:31:44;;;;;;;7.05;1.90;;;32.10;62.00;;;;;;5030551;28;20041;-64
2021/06/15 12:34:13;;;;;;;4.15;1.90;;;32.20;60.50;;;;;;5032155;28;20033;-63
2021/06/15 12:36:45;;;;;;;3.17;1.67;;;31.90;61.20;;;;;;5030765;28;20377;-62
2021/06/15 12:39:17;;;;;;;4.45;2.00;;;32.20;61.10;;;;;;5030980;28;20041;-64
2021/06/15 12:41:58;;;;;;;4.20;1.92;;;32.60;61.10;;;;;;5030563;28;20033;-64
2021/06/15 12:44:39;;;;;;;4.32;1.88;;;32.90;61.30;;;;;;5030430;28;20033;-62
2021/06/15 12:47:13;;;;;;;3.90;2.10;;;32.80;60.70;;;;;;5031826;28;20033;-64
2021/06/15 12:49:50;;;;;;;4.43;2.20;;;32.60;60.90;;;;;;5027007;28;20120;-63
2021/06/15 12:52:16;;;;;;;7.20;2.55;;;32.80;62.50;;;;;;5011843;28;20109;-64
2021/06/15 12:54:45;;;;;;;5.47;1.90;;;32.90;61.90;;;;;;5027133;28;20117;-64
2021/06/15 12:57:16;;;;;;;3.28;1.85;;;33.00;61.50;;;;;;5011890;28;20048;-64
2021/06/15 13:00:10;;;;;;;4.70;2.00;;;33.30;61.00;;;;;;5012047;28;20037;-64
2021/06/15 13:02:38;;;;;;;5.65;2.45;;;33.10;60.80;;;;;;5011673;28;20064;-64
2021/06/15 13:05:07;;;;;;;3.70;2.10;;;33.00;60.70;;;;;;5011595;28;20030;-63
2021/06/15 13:07:33;;;;;;;3.95;1.90;;;33.20;60.30;;;;;;5011931;28;20032;-63
2021/06/15 13:10:18;;;;;;;3.83;2.22;;;33.00;58.90;;;;;;5011578;28;20088;-63
2021/06/15 13:12:47;;;;;;;6.03;2.00;;;33.10;59.70;;;;;;5026441;28;20026;-64